GLO1113 SBCT-SBSP
Flight info
| Callsign | GLO1113 |
|---|---|
| Flight time | 0h 43m |
| Altitude | 25000 |
| Route | EDVEB UM548 DOSMU DCT ANISE |
| Aircraft | B737/M-SDFGIKLORWXY/LB1 |
Departure
| Time | 2026-05-08 17:01 |
|---|---|
| Airport | Curitiba-Afonso Pena International Airport (SBCT) |
Arrival
| Time | 2026-05-08 17:44 |
|---|---|
| Airport | Congonhas–Deputado Freitas Nobre Airport (SBSP) |
| Time | Latitude | Longitude | Altitude | Speed | Heading |
|---|---|---|---|---|---|
| 2026-05-08 16:45 | -25.53560 | -49.17227 | 2992 ft | 0 kts | 209° |
| 2026-05-08 16:54 | -25.53558 | -49.17226 | 2992 ft | 2 kts | 209° |
| 2026-05-08 16:54 | -25.53536 | -49.17212 | 2992 ft | 4 kts | 209° |
| 2026-05-08 16:54 | -25.53512 | -49.17199 | 2992 ft | 4 kts | 191° |
| 2026-05-08 16:54 | -25.53487 | -49.17200 | 2992 ft | 4 kts | 150° |
| 2026-05-08 16:55 | -25.53469 | -49.17216 | 2992 ft | 4 kts | 135° |
| 2026-05-08 16:55 | -25.53455 | -49.17231 | 2992 ft | 0 kts | 134° |
| 2026-05-08 16:57 | -25.53458 | -49.17228 | 2992 ft | 4 kts | 134° |
| 2026-05-08 16:57 | -25.53497 | -49.17184 | 2992 ft | 10 kts | 126° |
| 2026-05-08 16:58 | -25.53478 | -49.17132 | 2992 ft | 8 kts | 44° |
| 2026-05-08 16:58 | -25.53489 | -49.17084 | 2992 ft | 7 kts | 135° |
| 2026-05-08 16:58 | -25.53529 | -49.17039 | 2992 ft | 8 kts | 134° |
| 2026-05-08 16:58 | -25.53569 | -49.16994 | 2992 ft | 9 kts | 134° |
| 2026-05-08 16:59 | -25.53611 | -49.16932 | 2992 ft | 11 kts | 105° |
| 2026-05-08 16:59 | -25.53613 | -49.16849 | 2992 ft | 11 kts | 90° |
| 2026-05-08 16:59 | -25.53613 | -49.16769 | 2992 ft | 10 kts | 91° |
| 2026-05-08 16:59 | -25.53597 | -49.16733 | 2992 ft | 2 kts | 341° |
| 2026-05-08 17:00 | -25.53594 | -49.16737 | 2992 ft | 0 kts | 310° |
| 2026-05-08 17:00 | -25.53490 | -49.16859 | 2991 ft | 57 kts | 314° |
| 2026-05-08 17:00 | -25.53041 | -49.17362 | 2991 ft | 124 kts | 315° |
| 2026-05-08 17:00 | -25.52318 | -49.18164 | 3284 ft | 156 kts | 310° |
| 2026-05-08 17:01 | -25.51666 | -49.19065 | 4306 ft | 145 kts | 303° |
| 2026-05-08 17:01 | -25.51175 | -49.20134 | 4856 ft | 172 kts | 302° |
| 2026-05-08 17:01 | -25.50553 | -49.21419 | 5145 ft | 205 kts | 302° |
| 2026-05-08 17:01 | -25.49810 | -49.22909 | 5424 ft | 235 kts | 303° |
| 2026-05-08 17:02 | -25.48981 | -49.24538 | 5968 ft | 252 kts | 303° |
| 2026-05-08 17:02 | -25.48056 | -49.26211 | 6916 ft | 257 kts | 313° |
| 2026-05-08 17:02 | -25.46642 | -49.27399 | 7836 ft | 259 kts | 336° |
| 2026-05-08 17:02 | -25.44876 | -49.27851 | 8734 ft | 265 kts | 356° |
| 2026-05-08 17:03 | -25.43038 | -49.27565 | 9673 ft | 272 kts | 16° |
| 2026-05-08 17:03 | -25.41284 | -49.26712 | 10467 ft | 282 kts | 24° |
| 2026-05-08 17:03 | -25.39457 | -49.25676 | 10791 ft | 306 kts | 25° |
| 2026-05-08 17:03 | -25.37532 | -49.24577 | 11438 ft | 315 kts | 25° |
| 2026-05-08 17:04 | -25.35633 | -49.23415 | 12291 ft | 320 kts | 34° |
| 2026-05-08 17:04 | -25.34094 | -49.21600 | 13083 ft | 332 kts | 55° |
| 2026-05-08 17:04 | -25.33184 | -49.19229 | 13917 ft | 342 kts | 75° |
| 2026-05-08 17:04 | -25.32981 | -49.16575 | 14671 ft | 349 kts | 85° |
| 2026-05-08 17:05 | -25.32970 | -49.13872 | 15390 ft | 355 kts | 87° |
| 2026-05-08 17:05 | -25.33003 | -49.11139 | 16165 ft | 358 kts | 87° |
| 2026-05-08 17:05 | -25.33037 | -49.08361 | 16859 ft | 364 kts | 87° |
| 2026-05-08 17:05 | -25.33061 | -49.05542 | 17583 ft | 369 kts | 87° |
| 2026-05-08 17:06 | -25.33073 | -49.02697 | 18339 ft | 373 kts | 87° |
| 2026-05-08 17:06 | -25.33077 | -48.99804 | 18912 ft | 380 kts | 87° |
| 2026-05-08 17:06 | -25.33074 | -48.96895 | 19424 ft | 387 kts | 88° |
| 2026-05-08 17:06 | -25.33069 | -48.93892 | 19998 ft | 393 kts | 88° |
| 2026-05-08 17:07 | -25.33063 | -48.90861 | 20703 ft | 395 kts | 88° |
| 2026-05-08 17:07 | -25.33056 | -48.87820 | 21422 ft | 397 kts | 88° |
| 2026-05-08 17:07 | -25.33049 | -48.84762 | 22136 ft | 399 kts | 89° |
| 2026-05-08 17:07 | -25.33040 | -48.81686 | 22878 ft | 400 kts | 89° |
| 2026-05-08 17:08 | -25.33030 | -48.78599 | 23570 ft | 404 kts | 89° |
| 2026-05-08 17:08 | -25.33019 | -48.75484 | 24187 ft | 406 kts | 89° |
| 2026-05-08 17:08 | -25.33007 | -48.72411 | 24652 ft | 405 kts | 89° |
| 2026-05-08 17:08 | -25.32995 | -48.69325 | 24866 ft | 401 kts | 89° |
| 2026-05-08 17:09 | -25.32982 | -48.66221 | 24861 ft | 405 kts | 89° |
| 2026-05-08 17:09 | -25.32968 | -48.63118 | 24859 ft | 403 kts | 89° |
| 2026-05-08 17:09 | -25.32954 | -48.60017 | 24862 ft | 401 kts | 89° |
| 2026-05-08 17:09 | -25.32940 | -48.56943 | 24869 ft | 401 kts | 89° |
| 2026-05-08 17:10 | -25.32924 | -48.53863 | 24862 ft | 400 kts | 89° |
| 2026-05-08 17:10 | -25.32908 | -48.50791 | 24856 ft | 400 kts | 89° |
| 2026-05-08 17:10 | -25.32890 | -48.47722 | 24855 ft | 400 kts | 89° |
| 2026-05-08 17:10 | -25.32872 | -48.44651 | 24864 ft | 400 kts | 89° |
| 2026-05-08 17:11 | -25.32853 | -48.41614 | 24851 ft | 400 kts | 89° |
| 2026-05-08 17:11 | -25.32833 | -48.38533 | 24846 ft | 401 kts | 89° |
| 2026-05-08 17:11 | -25.32813 | -48.35453 | 24846 ft | 401 kts | 89° |
| 2026-05-08 17:11 | -25.32792 | -48.32372 | 24848 ft | 401 kts | 89° |
| 2026-05-08 17:12 | -25.32770 | -48.29294 | 24855 ft | 401 kts | 89° |
| 2026-05-08 17:12 | -25.32748 | -48.26211 | 24853 ft | 401 kts | 89° |
| 2026-05-08 17:12 | -25.32726 | -48.23124 | 24850 ft | 402 kts | 89° |
| 2026-05-08 17:12 | -25.32702 | -48.20036 | 24853 ft | 402 kts | 89° |
| 2026-05-08 17:13 | -25.32678 | -48.16989 | 24851 ft | 402 kts | 89° |
| 2026-05-08 17:13 | -25.32654 | -48.13893 | 24847 ft | 403 kts | 89° |
| 2026-05-08 17:13 | -25.32628 | -48.10795 | 24849 ft | 403 kts | 89° |
| 2026-05-08 17:13 | -25.32602 | -48.07693 | 24843 ft | 404 kts | 89° |
| 2026-05-08 17:14 | -25.32576 | -48.04589 | 24847 ft | 404 kts | 89° |
| 2026-05-08 17:14 | -25.32549 | -48.01484 | 24845 ft | 404 kts | 89° |
| 2026-05-08 17:14 | -25.32518 | -47.98384 | 24847 ft | 404 kts | 87° |
| 2026-05-08 17:14 | -25.32216 | -47.95306 | 24848 ft | 402 kts | 77° |
| 2026-05-08 17:15 | -25.31638 | -47.92326 | 24853 ft | 402 kts | 75° |
| 2026-05-08 17:15 | -25.31026 | -47.89315 | 24848 ft | 402 kts | 76° |
| 2026-05-08 17:15 | -25.30443 | -47.86286 | 24846 ft | 403 kts | 76° |
| 2026-05-08 17:15 | -25.29887 | -47.83250 | 24846 ft | 403 kts | 77° |
| 2026-05-08 17:16 | -25.29344 | -47.80217 | 24848 ft | 403 kts | 77° |
| 2026-05-08 17:16 | -25.28803 | -47.77177 | 24848 ft | 403 kts | 77° |
| 2026-05-08 17:16 | -25.28261 | -47.74138 | 24845 ft | 403 kts | 77° |
| 2026-05-08 17:16 | -25.27716 | -47.71098 | 24850 ft | 403 kts | 76° |
| 2026-05-08 17:17 | -25.27177 | -47.68106 | 24851 ft | 403 kts | 76° |
| 2026-05-08 17:17 | -25.26629 | -47.65072 | 24849 ft | 402 kts | 76° |
| 2026-05-08 17:17 | -25.26081 | -47.62044 | 24849 ft | 402 kts | 76° |
| 2026-05-08 17:17 | -25.25532 | -47.59013 | 24852 ft | 402 kts | 76° |
| 2026-05-08 17:18 | -25.24985 | -47.55992 | 24856 ft | 401 kts | 76° |
| 2026-05-08 17:18 | -25.24436 | -47.52966 | 24852 ft | 401 kts | 76° |
| 2026-05-08 17:18 | -25.23887 | -47.49946 | 24851 ft | 401 kts | 76° |
| 2026-05-08 17:18 | -25.23176 | -47.46984 | 24842 ft | 398 kts | 66° |
| 2026-05-08 17:19 | -25.22029 | -47.44229 | 24856 ft | 393 kts | 56° |
| 2026-05-08 17:19 | -25.20531 | -47.41777 | 24849 ft | 388 kts | 47° |
| 2026-05-08 17:19 | -25.18824 | -47.39478 | 24858 ft | 387 kts | 45° |
| 2026-05-08 17:19 | -25.17083 | -47.37208 | 24852 ft | 387 kts | 45° |
| 2026-05-08 17:20 | -25.15337 | -47.34946 | 24857 ft | 387 kts | 45° |
| 2026-05-08 17:20 | -25.13591 | -47.32676 | 24854 ft | 388 kts | 45° |
| 2026-05-08 17:20 | -25.11851 | -47.30402 | 24855 ft | 388 kts | 45° |
| 2026-05-08 17:20 | -25.10115 | -47.28121 | 24855 ft | 388 kts | 45° |
| 2026-05-08 17:21 | -25.08383 | -47.25838 | 24857 ft | 388 kts | 46° |
| 2026-05-08 17:21 | -25.06677 | -47.23584 | 24853 ft | 388 kts | 46° |
| 2026-05-08 17:21 | -25.04945 | -47.21296 | 24855 ft | 388 kts | 46° |
| 2026-05-08 17:21 | -25.03217 | -47.19013 | 24858 ft | 388 kts | 46° |
| 2026-05-08 17:22 | -25.01487 | -47.16728 | 24859 ft | 388 kts | 46° |
| 2026-05-08 17:22 | -24.99757 | -47.14443 | 24856 ft | 388 kts | 46° |
| 2026-05-08 17:22 | -24.98027 | -47.12161 | 24856 ft | 388 kts | 46° |
| 2026-05-08 17:22 | -24.96298 | -47.09880 | 24859 ft | 388 kts | 46° |
| 2026-05-08 17:23 | -24.94571 | -47.07603 | 24862 ft | 387 kts | 46° |
| 2026-05-08 17:23 | -24.92842 | -47.05325 | 24861 ft | 387 kts | 46° |
| 2026-05-08 17:23 | -24.91138 | -47.03081 | 24866 ft | 387 kts | 46° |
| 2026-05-08 17:23 | -24.89410 | -47.00807 | 24866 ft | 387 kts | 46° |
| 2026-05-08 17:24 | -24.87683 | -46.98534 | 24867 ft | 387 kts | 46° |
| 2026-05-08 17:24 | -24.85958 | -46.96265 | 24867 ft | 386 kts | 46° |
| 2026-05-08 17:24 | -24.84231 | -46.93995 | 24864 ft | 386 kts | 46° |
| 2026-05-08 17:24 | -24.82506 | -46.91728 | 24865 ft | 386 kts | 46° |
| 2026-05-08 17:25 | -24.80799 | -46.89485 | 24721 ft | 381 kts | 45° |
| 2026-05-08 17:25 | -24.79102 | -46.87256 | 24348 ft | 378 kts | 45° |
| 2026-05-08 17:25 | -24.77429 | -46.85062 | 23826 ft | 380 kts | 45° |
| 2026-05-08 17:25 | -24.75724 | -46.82828 | 23256 ft | 383 kts | 46° |
| 2026-05-08 17:26 | -24.74008 | -46.80580 | 22637 ft | 384 kts | 46° |
| 2026-05-08 17:26 | -24.72290 | -46.78329 | 22053 ft | 384 kts | 46° |
| 2026-05-08 17:26 | -24.70575 | -46.76083 | 21495 ft | 383 kts | 46° |
| 2026-05-08 17:26 | -24.68867 | -46.73845 | 20934 ft | 382 kts | 46° |
| 2026-05-08 17:27 | -24.67168 | -46.71621 | 20321 ft | 377 kts | 47° |
| 2026-05-08 17:27 | -24.65483 | -46.69416 | 19521 ft | 376 kts | 47° |
| 2026-05-08 17:27 | -24.63797 | -46.67213 | 18660 ft | 377 kts | 47° |
| 2026-05-08 17:27 | -24.62131 | -46.65064 | 17981 ft | 371 kts | 44° |
| 2026-05-08 17:28 | -24.60102 | -46.63412 | 17222 ft | 360 kts | 24° |
| 2026-05-08 17:28 | -24.57757 | -46.62573 | 16538 ft | 351 kts | 6° |
| 2026-05-08 17:28 | -24.55342 | -46.62433 | 16207 ft | 346 kts | 360° |
| 2026-05-08 17:28 | -24.52935 | -46.62451 | 15836 ft | 345 kts | 358° |
| 2026-05-08 17:29 | -24.52127 | -46.62466 | 15731 ft | 344 kts | 358° |
| 2026-05-08 17:29 | -24.51001 | -46.62487 | 15559 ft | 344 kts | 358° |
| 2026-05-08 17:29 | -24.48608 | -46.62525 | 15223 ft | 344 kts | 359° |
| 2026-05-08 17:29 | -24.46213 | -46.62548 | 14882 ft | 344 kts | 359° |
| 2026-05-08 17:30 | -24.43849 | -46.62557 | 14539 ft | 344 kts | 359° |
| 2026-05-08 17:30 | -24.41452 | -46.62561 | 14198 ft | 344 kts | 360° |
| 2026-05-08 17:30 | -24.39061 | -46.62564 | 13862 ft | 344 kts | 360° |
| 2026-05-08 17:30 | -24.36673 | -46.62565 | 13520 ft | 341 kts | 360° |
| 2026-05-08 17:31 | -24.34315 | -46.62566 | 13192 ft | 337 kts | 360° |
| 2026-05-08 17:31 | -24.31994 | -46.62567 | 12870 ft | 331 kts | 360° |
| 2026-05-08 17:31 | -24.29707 | -46.62568 | 12572 ft | 327 kts | 360° |
| 2026-05-08 17:31 | -24.27436 | -46.62569 | 12273 ft | 325 kts | 359° |
| 2026-05-08 17:32 | -24.25181 | -46.62571 | 11989 ft | 324 kts | 359° |
| 2026-05-08 17:32 | -24.22962 | -46.62572 | 11708 ft | 322 kts | 359° |
| 2026-05-08 17:32 | -24.20727 | -46.62574 | 11417 ft | 321 kts | 359° |
| 2026-05-08 17:32 | -24.18499 | -46.62575 | 11128 ft | 320 kts | 359° |
| 2026-05-08 17:33 | -24.16276 | -46.62576 | 10838 ft | 319 kts | 359° |
| 2026-05-08 17:33 | -24.14083 | -46.62577 | 10552 ft | 311 kts | 359° |
| 2026-05-08 17:33 | -24.11950 | -46.62578 | 10270 ft | 303 kts | 359° |
| 2026-05-08 17:33 | -24.09872 | -46.62579 | 9998 ft | 295 kts | 358° |
| 2026-05-08 17:34 | -24.07849 | -46.62580 | 9851 ft | 284 kts | 358° |
| 2026-05-08 17:34 | -24.05932 | -46.62580 | 9700 ft | 272 kts | 358° |
| 2026-05-08 17:34 | -24.04041 | -46.62582 | 9271 ft | 273 kts | 358° |
| 2026-05-08 17:34 | -24.02160 | -46.62584 | 8909 ft | 266 kts | 358° |
| 2026-05-08 17:35 | -24.00349 | -46.62585 | 8737 ft | 258 kts | 358° |
| 2026-05-08 17:35 | -23.98555 | -46.62587 | 8476 ft | 258 kts | 359° |
| 2026-05-08 17:35 | -23.96775 | -46.62588 | 8238 ft | 254 kts | 358° |
| 2026-05-08 17:35 | -23.95012 | -46.62590 | 8031 ft | 253 kts | 358° |
| 2026-05-08 17:36 | -23.93248 | -46.62591 | 7799 ft | 254 kts | 358° |
| 2026-05-08 17:36 | -23.91486 | -46.62593 | 7622 ft | 252 kts | 358° |
| 2026-05-08 17:36 | -23.89787 | -46.62592 | 7549 ft | 236 kts | 358° |
| 2026-05-08 17:36 | -23.88202 | -46.62592 | 7434 ft | 220 kts | 358° |
| 2026-05-08 17:37 | -23.86722 | -46.62567 | 7321 ft | 207 kts | 5° |
| 2026-05-08 17:37 | -23.85431 | -46.62017 | 7225 ft | 200 kts | 30° |
| 2026-05-08 17:37 | -23.84411 | -46.60976 | 6828 ft | 209 kts | 44° |
| 2026-05-08 17:37 | -23.83510 | -46.59735 | 6536 ft | 209 kts | 46° |
| 2026-05-08 17:38 | -23.82632 | -46.58496 | 6298 ft | 203 kts | 45° |
| 2026-05-08 17:38 | -23.81781 | -46.57302 | 6095 ft | 195 kts | 45° |
| 2026-05-08 17:38 | -23.80956 | -46.56155 | 5913 ft | 192 kts | 45° |
| 2026-05-08 17:38 | -23.80084 | -46.55080 | 5723 ft | 185 kts | 26° |
| 2026-05-08 17:39 | -23.78916 | -46.54769 | 5614 ft | 170 kts | 351° |
| 2026-05-08 17:39 | -23.77814 | -46.55181 | 5445 ft | 168 kts | 328° |
| 2026-05-08 17:39 | -23.76814 | -46.55870 | 5294 ft | 172 kts | 328° |
| 2026-05-08 17:39 | -23.75824 | -46.56547 | 5131 ft | 164 kts | 328° |
| 2026-05-08 17:40 | -23.74905 | -46.57179 | 5063 ft | 156 kts | 328° |
| 2026-05-08 17:40 | -23.73987 | -46.57812 | 5010 ft | 154 kts | 328° |
| 2026-05-08 17:40 | -23.73063 | -46.58450 | 4782 ft | 166 kts | 328° |
| 2026-05-08 17:40 | -23.72126 | -46.59098 | 4577 ft | 153 kts | 328° |
| 2026-05-08 17:41 | -23.71279 | -46.59682 | 4477 ft | 137 kts | 328° |
| 2026-05-08 17:41 | -23.70474 | -46.60239 | 4270 ft | 138 kts | 329° |
| 2026-05-08 17:41 | -23.69677 | -46.60790 | 4133 ft | 139 kts | 328° |
| 2026-05-08 17:41 | -23.68866 | -46.61353 | 3969 ft | 136 kts | 328° |
| 2026-05-08 17:42 | -23.68088 | -46.61891 | 3764 ft | 131 kts | 328° |
| 2026-05-08 17:42 | -23.67341 | -46.62407 | 3612 ft | 124 kts | 329° |
| 2026-05-08 17:42 | -23.66607 | -46.62915 | 3441 ft | 124 kts | 327° |
| 2026-05-08 17:42 | -23.65877 | -46.63433 | 3264 ft | 127 kts | 329° |
| 2026-05-08 17:43 | -23.65125 | -46.63949 | 3063 ft | 127 kts | 328° |
| 2026-05-08 17:43 | -23.64388 | -46.64462 | 2878 ft | 125 kts | 330° |
| 2026-05-08 17:43 | -23.63641 | -46.64971 | 2698 ft | 127 kts | 329° |
| 2026-05-08 17:43 | -23.62922 | -46.65469 | 2608 ft | 102 kts | 328° |
| 2026-05-08 17:44 | -23.62440 | -46.65804 | 2602 ft | 64 kts | 327° |
| 2026-05-08 17:44 | -23.62221 | -46.65955 | 2597 ft | 16 kts | 327° |
| 2026-05-08 17:44 | -23.62236 | -46.66042 | 2599 ft | 16 kts | 182° |
| 2026-05-08 17:44 | -23.62330 | -46.65988 | 2599 ft | 15 kts | 147° |
| 2026-05-08 17:45 | -23.62417 | -46.65927 | 2600 ft | 14 kts | 147° |
| 2026-05-08 17:45 | -23.62500 | -46.65869 | 2601 ft | 14 kts | 147° |
| 2026-05-08 17:45 | -23.62579 | -46.65814 | 2601 ft | 13 kts | 147° |
| 2026-05-08 17:45 | -23.62656 | -46.65761 | 2601 ft | 13 kts | 148° |
| 2026-05-08 17:46 | -23.62730 | -46.65710 | 2601 ft | 12 kts | 147° |
| 2026-05-08 17:46 | -23.62803 | -46.65660 | 2602 ft | 12 kts | 149° |
| 2026-05-08 17:46 | -23.62876 | -46.65623 | 2601 ft | 11 kts | 187° |
| 2026-05-08 17:46 | -23.62914 | -46.65674 | 2600 ft | 3 kts | 240° |
| 2026-05-08 17:47 | -23.62908 | -46.65691 | 2600 ft | 3 kts | 316° |
| 2026-05-08 17:47 | -23.62888 | -46.65705 | 2600 ft | 4 kts | 327° |
| 2026-05-08 17:47 | -23.62883 | -46.65708 | 2600 ft | 0 kts | 327° |